Terminal Aerodrome Forecast
Issued by NWS

Home | Current Version | Previous Version | Text Only | Print | Product List | Glossary On
Versions: 1 2 3 4 5 6 7 8 9 10 11 12 13 14 15 16 17 18
000
FTUS41 KBTV 182337
TAFMPV
TAF
KMPV 182337Z 1900/1924 16011KT P6SM VCSH OVC030
     FM190200 15010KT 6SM -RA BR OVC015
     FM191500 22014G22KT 6SM -SHRA BR OVC020
     FM192000 29016G27KT P6SM VCSH BKN040=

USA.gov is the U.S. government's official web portal to all federal, state and local government web resources and services.